Flight Track Log - Related Links

Times and Time Zones

All times are in EDT time to prevent confusion due to time zone crossing. See the N28JK flight status page for this flight to view local times or setup timezone preferences in your user account.

Time Position Orientation Groundspeed Altitude Reporting Facility
EDT Latitude Longitude Course Direction KTS MPH feet Rate Location/Type
Thu 08:20:39 AM 27.6578 -80.4042 319° Northwest 257 296 1,000  Level Miami Center
Thu 08:21:39 AM 27.6917 -80.3886 22° Northeast 177 204 2,700 1,736 Climbing Miami Center
Thu 08:22:40 AM 27.7331 -80.4064 339° North 149 171 4,500 1,785 Climbing Miami Center
Thu 08:23:40 AM 27.7697 -80.4358 325° Northwest 154 177 6,300 1,866 Climbing Miami Center
Thu 08:24:39 AM 27.8047 -80.4625 326° Northwest 154 177 8,200 1,866 Climbing Miami Center
Thu 08:25:00 AM 27.9752 -80.7585 319° Northwest  Level FlightAware Approximate
Thu 08:25:39 AM 27.8225 -80.5031 296° West 154 177 10,000  Level Miami Center
Thu 08:26:40 AM 27.8400 -80.5483 294° West 161 185 11,800 1,983 Climbing Miami Center
Thu 08:27:40 AM 27.8808 -80.5847 322° Northwest 161 185 14,000 1,950 Climbing Miami Center
Thu 08:28:40 AM 27.9175 -80.6167 322° Northwest 167 192 15,700 1,600 Climbing Miami Center
Thu 08:29:40 AM 27.9522 -80.6436 326° Northwest 172 198 17,200 1,400 Climbing Miami Center
Thu 08:30:40 AM 27.9994 -80.6781 327° Northwest 172 198 18,500 1,250 Climbing Miami Center
Thu 08:31:40 AM 28.0403 -80.7122 324° Northwest 177 204 19,700 1,250 Climbing Miami Center
Thu 08:32:40 AM 28.0811 -80.7467 323° Northwest 177 204 21,000 1,250 Climbing Miami Center
Thu 08:33:40 AM 28.1197 -80.7856 318° Northwest 182 209 22,200 1,210 Climbing Miami Center
Thu 08:34:39 AM 28.1603 -80.8247 320° Northwest 182 209 23,400 1,100 Climbing Miami Center
Thu 08:35:40 AM 28.1989 -80.8592 322° Northwest 182 209 24,400 1,050 Climbing Miami Center
Thu 08:36:39 AM 28.2353 -80.9006 315° West 188 216 25,500 1,008 Climbing Miami Center
Thu 08:37:39 AM 28.2675 -80.9417 312° West 183 211 26,400 744 Climbing Miami Center
Thu 08:38:40 AM 28.2997 -80.9875 309° West 177 204 27,000 298 Climbing Miami Center
Thu 08:39:40 AM 28.3400 -81.0386 312° West 192 221 27,000  Level Miami Center
Thu 08:40:39 AM 28.3781 -81.0942 308° West 216 249 27,000  Level Miami Center
Thu 08:41:40 AM 28.4222 -81.1503 312° West 230 265 27,000  Level Miami Center
Thu 08:42:39 AM 28.4683 -81.2111 311° West 240 276 27,000  Level Miami Center
Thu 08:43:40 AM 28.5103 -81.2694 309° West 240 276 27,000  Level Miami Center
Thu 08:44:40 AM 28.5544 -81.3278 311° West 240 276 27,000  Level Miami Center
Thu 08:45:40 AM 28.6056 -81.3653 327° Northwest 226 260 27,000  Level Miami Center
Thu 08:46:40 AM 28.6622 -81.3511 12° North 202 232 27,000  Level Miami Center
Thu 08:47:51 AM 28.7439 -81.3533 359° North 230 265 27,000  Level Jacksonville Center
Thu 08:48:51 AM 28.8108 -81.3619 354° North 236 272 27,000  Level Jacksonville Center
Thu 08:49:51 AM 28.8756 -81.3656 357° North 236 272 27,000  Level Jacksonville Center
Thu 08:50:51 AM 28.9422 -81.3742 354° North 236 272 27,000  Level Jacksonville Center
Thu 08:51:51 AM 29.0092 -81.3803 355° North 236 272 27,000  Level Jacksonville Center
Thu 08:52:51 AM 29.0781 -81.3861 356° North 236 272 27,000  Level Jacksonville Center
Thu 08:53:51 AM 29.1492 -81.3947 354° North 235 270 27,000  Level Jacksonville Center
Thu 08:54:51 AM 29.2119 -81.4008 355° North 240 276 27,000  Level Jacksonville Center
Thu 08:55:51 AM 29.2786 -81.4047 357° North 235 270 27,000  Level Jacksonville Center
Thu 08:56:51 AM 29.3456 -81.4108 355° North 235 270 27,000  Level Jacksonville Center
Thu 08:57:51 AM 29.4144 -81.4144 357° North 235 270 27,000  Level Jacksonville Center
Thu 08:58:51 AM 29.4856 -81.4253 352° North 235 270 27,000  Level Jacksonville Center
Thu 08:59:51 AM 29.5547 -81.4314 356° North 235 270 27,000 -50 Level Jacksonville Center
Thu 09:00:51 AM 29.6214 -81.4375 355° North 235 270 26,900  Descending Jacksonville Center
Thu 09:01:51 AM 29.6883 -81.4439 355° North 235 270 27,000 50 Climbing Jacksonville Center
Thu 09:02:51 AM 29.7572 -81.4522 354° North 235 270 27,000  Level Jacksonville Center
Thu 09:03:51 AM 29.8222 -81.4586 355° North 235 270 27,000  Level Jacksonville Center
Thu 09:04:51 AM 29.8911 -81.4672 354° North 235 270 27,000  Level Jacksonville Center
Thu 09:05:51 AM 29.9600 -81.4708 357° North 235 270 27,000  Level Jacksonville Center
Thu 09:06:51 AM 30.0289 -81.4772 355° North 235 270 27,000  Level Jacksonville Center
Thu 09:07:51 AM 30.0917 -81.4833 355° North 242 278 27,000  Level Jacksonville Center
Thu 09:08:51 AM 30.1586 -81.4897 355° North 242 278 27,000  Level Jacksonville Center
Thu 09:09:51 AM 30.2275 -81.4983 354° North 242 278 27,000  Level Jacksonville Center
Thu 09:10:51 AM 30.3008 -81.5044 356° North 247 284 27,000  Level Jacksonville Center
Thu 09:11:51 AM 30.3694 -81.4986 North 252 290 27,000  Level Jacksonville Center
Thu 09:12:51 AM 30.4361 -81.4758 16° North 252 290 27,000  Level Jacksonville Center
Thu 09:13:51 AM 30.5047 -81.4531 16° North 252 290 27,000  Level Jacksonville Center
Thu 09:14:51 AM 30.5733 -81.4306 16° North 252 290 27,000  Level Jacksonville Center
Thu 09:15:51 AM 30.6419 -81.4053 18° North 257 296 27,000  Level Jacksonville Center
Thu 09:16:51 AM 30.7128 -81.3825 15° North 257 296 27,000  Level Jacksonville Center
Thu 09:17:51 AM 30.7814 -81.3572 18° North 257 296 27,000  Level Jacksonville Center
Thu 09:18:51 AM 30.8519 -81.3367 14° North 257 296 27,000  Level Jacksonville Center
Thu 09:19:51 AM 30.9206 -81.3039 22° Northeast 257 296 27,000  Level Jacksonville Center
Thu 09:20:51 AM 30.9847 -81.2617 29° Northeast 257 296 27,000  Level Jacksonville Center
Thu 09:21:51 AM 31.0469 -81.2194 30° Northeast 257 296 27,000  Level Jacksonville Center
Thu 09:22:51 AM 31.1131 -81.1819 26° Northeast 262 302 27,000  Level Jacksonville Center
Thu 09:23:51 AM 31.1794 -81.1417 27° Northeast 262 302 27,000  Level Jacksonville Center
Thu 09:24:51 AM 31.2436 -81.0994 29° Northeast 262 302 27,000  Level Jacksonville Center
Thu 09:25:51 AM 31.3097 -81.0592 27° Northeast 262 302 27,000  Level Jacksonville Center
Thu 09:26:51 AM 31.3761 -81.0164 29° Northeast 262 302 27,000  Level Jacksonville Center
Thu 09:27:51 AM 31.4464 -80.9689 30° Northeast 262 302 27,000  Level Jacksonville Center
Thu 09:28:51 AM 31.5103 -80.9283 28° Northeast 262 302 27,000  Level Jacksonville Center
Thu 09:29:51 AM 31.5703 -80.8931 27° Northeast 262 302 27,000  Level Jacksonville Center
Thu 09:30:51 AM 31.6406 -80.8478 29° Northeast 262 302 27,000  Level Jacksonville Center
Thu 09:31:51 AM 31.7067 -80.8047 29° Northeast 262 302 27,000  Level Jacksonville Center
Thu 09:32:51 AM 31.7728 -80.7617 29° Northeast 262 302 27,000  Level Jacksonville Center
Thu 09:33:51 AM 31.8369 -80.7211 28° Northeast 262 302 27,000  Level Jacksonville Center
Thu 09:34:51 AM 31.8989 -80.6828 28° Northeast 262 302 27,000  Level Jacksonville Center
Thu 09:35:51 AM 31.9689 -80.6372 29° Northeast 262 302 27,000  Level Jacksonville Center
Thu 09:36:51 AM 32.0350 -80.5964 28° Northeast 262 302 27,000  Level Jacksonville Center
Thu 09:37:51 AM 32.0928 -80.5581 29° Northeast 262 302 27,000  Level Jacksonville Center
Thu 09:38:51 AM 32.1547 -80.5122 32° Northeast 262 302 27,000  Level Jacksonville Center
Thu 09:39:51 AM 32.2142 -80.4617 36° Northeast 262 302 27,000  Level Jacksonville Center
Thu 09:40:51 AM 32.2758 -80.4133 34° Northeast 262 302 27,000  Level Jacksonville Center
Thu 09:41:51 AM 32.3375 -80.3675 32° Northeast 262 302 27,000  Level Jacksonville Center
Thu 09:42:51 AM 32.4014 -80.3214 31° Northeast 262 302 27,000  Level Jacksonville Center
Thu 09:43:51 AM 32.4631 -80.2728 34° Northeast 262 302 27,000  Level Jacksonville Center
Thu 09:44:51 AM 32.5225 -80.2242 35° Northeast 262 302 27,000  Level Jacksonville Center
Thu 09:45:51 AM 32.5819 -80.1758 34° Northeast 257 296 27,000  Level Jacksonville Center
Thu 09:46:51 AM 32.6436 -80.1269 34° Northeast 262 302 27,000  Level Jacksonville Center
Thu 09:47:51 AM 32.7031 -80.0783 35° Northeast 262 302 27,000  Level Jacksonville Center
Thu 09:48:51 AM 32.7647 -80.0294 34° Northeast 257 296 27,000  Level Jacksonville Center
Thu 09:49:51 AM 32.8239 -79.9806 35° Northeast 257 296 27,000  Level Jacksonville Center
Thu 09:50:51 AM 32.8856 -79.9317 34° Northeast 257 296 27,000  Level Jacksonville Center
Thu 09:51:51 AM 32.9447 -79.8778 37° Northeast 262 302 27,000  Level Jacksonville Center
Thu 09:52:51 AM 33.0019 -79.8236 38° Northeast 262 302 27,000  Level Jacksonville Center
Thu 09:53:51 AM 33.0611 -79.7672 39° Northeast 262 302 27,000  Level Jacksonville Center
Thu 09:54:52 AM 33.1203 -79.7131 37° Northeast 267 307 27,000  Level Jacksonville Center
Thu 09:55:51 AM 33.1750 -79.6539 42° Northeast 267 307 27,000  Level Jacksonville Center
Thu 09:56:51 AM 33.2278 -79.5950 43° Northeast 267 307 27,000  Level Jacksonville Center
Thu 09:57:51 AM 33.2825 -79.5333 43° Northeast 262 302 27,000  Level Jacksonville Center
Thu 09:58:51 AM 33.3372 -79.4742 42° Northeast 257 296 27,000  Level Jacksonville Center
Thu 09:59:51 AM 33.3961 -79.4097 42° Northeast 262 302 27,000  Level Jacksonville Center
Thu 10:00:51 AM 33.4528 -79.3500 41° Northeast 262 302 27,000  Level Jacksonville Center
Thu 10:01:51 AM 33.5097 -79.2931 40° Northeast 257 296 27,000  Level Jacksonville Center
Thu 10:02:51 AM 33.5750 -79.2481 30° Northeast 257 296 27,000  Level Jacksonville Center
Thu 10:03:51 AM 33.6453 -79.2178 20° North 257 296 27,000  Level Jacksonville Center
Thu 10:04:51 AM 33.7006 -79.1856 26° Northeast 262 302 27,000  Level Jacksonville Center
Thu 10:05:51 AM 33.7725 -79.1475 24° Northeast 262 302 27,000  Level Jacksonville Center
Thu 10:06:51 AM 33.8422 -79.1094 24° Northeast 262 302 27,000  Level Jacksonville Center
Thu 10:07:51 AM 33.9100 -79.0714 25° Northeast 267 307 27,000  Level Jacksonville Center
Thu 10:08:51 AM 33.9797 -79.0358 23° Northeast 267 307 27,000  Level Jacksonville Center
Thu 10:09:51 AM 34.0475 -78.9978 25° Northeast 272 313 27,000  Level Jacksonville Center
Thu 10:10:51 AM 34.1172 -78.9622 23° Northeast 272 313 27,000  Level Jacksonville Center
Thu 10:13:08 AM 34.2750 -78.8742 25° Northeast 260 299 27,000  Level Washington Center
Thu 10:14:07 AM 34.3447 -78.8367 24° Northeast 254 292 27,000  Level Washington Center
Thu 10:15:07 AM 34.4147 -78.7992 24° Northeast 267 307 27,000  Level Washington Center
Thu 10:16:08 AM 34.4825 -78.7614 25° Northeast 268 308 27,000  Level Washington Center
Thu 10:17:06 AM 34.5525 -78.7164 28° Northeast 258 297 27,000  Level Washington Center
Thu 10:18:07 AM 34.6308 -78.6714 25° Northeast 280 322 27,000  Level Washington Center
Thu 10:19:08 AM 34.6942 -78.6383 23° Northeast 275 316 27,000  Level Washington Center
Thu 10:20:08 AM 34.7706 -78.5958 25° Northeast 275 316 27,000  Level Washington Center
Thu 10:21:09 AM 34.8339 -78.5600 25° Northeast 275 316 27,000  Level Washington Center
Thu 10:22:06 AM 34.9039 -78.5222 24° Northeast 280 322 27,000  Level Washington Center
Thu 10:23:07 AM 34.9756 -78.4817 25° Northeast 280 322 27,000  Level Washington Center
Thu 10:24:08 AM 35.0456 -78.4411 25° Northeast 280 322 27,000  Level Washington Center
Thu 10:25:08 AM 35.1153 -78.4003 26° Northeast 280 322 27,000  Level Washington Center
Thu 10:26:09 AM 35.1872 -78.3597 25° Northeast 280 322 27,000  Level Washington Center
Thu 10:27:09 AM 35.2592 -78.3189 25° Northeast 280 322 27,000  Level Washington Center
Thu 10:28:06 AM 35.3311 -78.2781 25° Northeast 280 322 27,000  Level Washington Center
Thu 10:29:07 AM 35.4114 -78.2322 25° Northeast 280 322 27,000  Level Washington Center
Thu 10:30:07 AM 35.4831 -78.1939 24° Northeast 280 322 27,000  Level Washington Center
Thu 10:31:08 AM 35.5569 -78.1503 26° Northeast 280 322 27,000  Level Washington Center
Thu 10:32:09 AM 35.6267 -78.1117 24° Northeast 280 322 27,000  Level Washington Center
Thu 10:33:07 AM 35.6986 -78.0706 25° Northeast 280 322 27,000  Level Washington Center
Thu 10:34:09 AM 35.7725 -78.0292 24° Northeast 280 322 27,000  Level Washington Center
Thu 10:35:09 AM 35.8442 -77.9878 25° Northeast 280 322 27,000  Level Washington Center
Thu 10:36:07 AM 35.9158 -77.9464 25° Northeast 280 322 27,000  Level Washington Center
Thu 10:37:08 AM 35.9878 -77.9050 25° Northeast 280 322 27,000  Level Washington Center
Thu 10:38:09 AM 36.0594 -77.8633 25° Northeast 280 322 27,000  Level Washington Center
Thu 10:39:07 AM 36.1331 -77.8242 23° Northeast 280 322 27,000  Level Washington Center
Thu 10:40:08 AM 36.2047 -77.7853 24° Northeast 280 322 27,000  Level Washington Center
Thu 10:41:08 AM 36.2767 -77.7383 28° Northeast 280 322 27,000  Level Washington Center
Thu 10:42:07 AM 36.3483 -77.6989 24° Northeast 280 322 27,000  Level Washington Center
Thu 10:43:07 AM 36.4200 -77.6569 25° Northeast 280 322 27,000  Level Washington Center
Thu 10:44:08 AM 36.4894 -77.6147 26° Northeast 274 315 27,000  Level Washington Center
Thu 10:45:09 AM 36.5611 -77.5728 25° Northeast 274 315 27,000  Level Washington Center
Thu 10:46:07 AM 36.6328 -77.5306 25° Northeast 279 321 27,000  Level Washington Center
Thu 10:47:07 AM 36.7044 -77.4883 25° Northeast 279 321 27,000  Level Washington Center
Thu 10:48:08 AM 36.7781 -77.4461 25° Northeast 279 321 27,000  Level Washington Center
Thu 10:49:08 AM 36.8497 -77.4036 25° Northeast 279 321 27,000  Level Washington Center
Thu 10:50:09 AM 36.9233 -77.3586 26° Northeast 279 321 27,000  Level Washington Center
Thu 10:51:07 AM 36.9928 -77.3158 26° Northeast 279 321 27,000  Level Washington Center
Thu 10:52:08 AM 37.0644 -77.2733 25° Northeast 279 321 27,000 -149 Level Washington Center
Thu 10:53:08 AM 37.1400 -77.2306 24° Northeast 279 321 26,700 -350 Descending Washington Center
Thu 10:54:08 AM 37.2158 -77.1828 27° Northeast 286 329 26,300 -450 Descending Washington Center
Thu 10:55:08 AM 37.2831 -77.1422 26° Northeast 286 329 25,800 -504 Descending Washington Center
Thu 10:56:07 AM 37.3692 -77.0917 25° Northeast 298 343 25,300 -403 Descending Washington Center
Thu 10:57:07 AM 37.4364 -77.0539 24° Northeast 298 343 25,000 -149 Descending Washington Center
Thu 10:58:08 AM 37.5183 -77.0136 21° North 298 343 25,000  Level Washington Center
Thu 10:59:09 AM 37.5875 -76.9703 26° Northeast 291 335 25,000  Level Washington Center
Thu 11:00:07 AM 37.6589 -76.9297 24° Northeast 286 329 25,000  Level Washington Center
Thu 11:01:08 AM 37.7408 -76.8864 23° Northeast 286 329 25,000  Level Washington Center
Thu 11:02:09 AM 37.8122 -76.8456 24° Northeast 281 323 25,000 -203 Level Washington Center
Thu 11:03:06 AM 37.8878 -76.8022 24° Northeast 281 323 24,600 -458 Descending Washington Center
Thu 11:04:07 AM 37.9653 -76.7586 24° Northeast 281 323 24,100 -541 Descending Washington Center
Thu 11:05:08 AM 38.0386 -76.7150 25° Northeast 286 329 23,500 -545 Descending Washington Center
Thu 11:06:08 AM 38.1181 -76.7056 North 286 329 23,000 -300 Descending Washington Center
Thu 11:07:08 AM 38.1972 -76.7042 North 286 329 22,900  Descending Washington Center
Thu 11:08:06 AM 38.2786 -76.7000 North 281 323 23,000 101 Climbing Washington Center
Thu 11:09:07 AM 38.3453 -76.7008 359° North 281 323 23,100 49 Climbing Washington Center
Thu 11:10:08 AM 38.4350 -76.6969 North 281 323 23,100  Level Washington Center
Thu 11:11:08 AM 38.5122 -76.6928 North 276 318 23,100  Level Washington Center
Thu 11:12:09 AM 38.5914 -76.6886 North 276 318 23,100  Level Washington Center
Thu 11:13:09 AM 38.6708 -76.6844 North 276 318 23,100 -151 Level Washington Center
Thu 11:14:08 AM 38.7500 -76.6831 North 276 318 22,800 -403 Descending Washington Center
Thu 11:15:08 AM 38.8292 -76.6789 North 276 318 22,300 -555 Descending Washington Center
Thu 11:16:07 AM 38.9086 -76.6719 North 276 318 21,700 -545 Descending Washington Center
Thu 11:17:09 AM 38.9897 -76.6706 North 276 318 21,200 -541 Descending Washington Center
Thu 11:18:09 AM 39.0692 -76.6664 North 276 318 20,600 -578 Descending Washington Center
Thu 11:20:16 AM 39.2261 -76.6622 North 280 322 19,400 -479 Descending New York Center
Thu 11:21:17 AM 39.2972 -76.6547 North 269 310 19,100 -149 Descending New York Center
Thu 11:22:17 AM 39.3728 -76.6475 North 269 310 19,100  Level New York Center
Thu 11:23:15 AM 39.4400 -76.6369 North 258 297 19,100  Level New York Center
Thu 11:24:17 AM 39.4992 -76.5800 37° Northeast 244 281 19,100  Level New York Center
Thu 11:25:15 AM 39.5525 -76.5142 44° Northeast 244 281 19,100  Level New York Center
Thu 11:26:15 AM 39.6094 -76.4569 38° Northeast 249 287 19,100  Level New York Center
Thu 11:27:15 AM 39.6644 -76.3994 39° Northeast 254 292 19,100  Level New York Center
Thu 11:28:16 AM 39.7214 -76.3392 39° Northeast 254 292 19,100  Level New York Center
Thu 11:29:16 AM 39.7764 -76.2786 40° Northeast 254 292 19,100  Level New York Center
Thu 11:30:17 AM 39.8353 -76.2211 37° Northeast 254 292 19,100  Level New York Center
Thu 11:31:15 AM 39.8944 -76.1608 38° Northeast 264 304 19,100 -102 Level New York Center
Thu 11:32:15 AM 39.9539 -76.0922 41° Northeast 264 304 18,900 -446 Descending New York Center
Thu 11:33:16 AM 40.0106 -76.0342 38° Northeast 264 304 18,200 -496 Descending New York Center
Thu 11:34:16 AM 40.0656 -75.9731 40° Northeast 264 304 17,900 -443 Descending New York Center
Thu 11:35:18 AM 40.1217 -75.9286 31° Northeast 264 304 17,300 -706 Descending New York Center
Thu 11:36:15 AM 40.1864 -75.8761 32° Northeast 251 289 16,500 -661 Descending New York Center
Thu 11:37:16 AM 40.2492 -75.8264 31° Northeast 256 295 16,000 -200 Descending New York Center
Thu 11:38:15 AM 40.2997 -75.7647 43° Northeast 244 281 16,100 -150 Climbing New York Center
Thu 11:39:16 AM 40.3456 -75.7136 40° Northeast 239 275 15,700 -541 Descending New York Center
Thu 11:40:17 AM 40.4003 -75.6522 40° Northeast 239 275 15,000 -843 Descending New York Center
Thu 11:41:17 AM 40.4569 -75.5881 41° Northeast 244 281 14,000 -900 Descending New York Center
Thu 11:42:17 AM 40.5031 -75.5311 43° Northeast 244 281 13,200 -915 Descending New York Center
Thu 11:43:15 AM 40.5553 -75.4747 39° Northeast 244 281 12,200 -958 Descending New York Center
Thu 11:44:16 AM 40.6056 -75.4153 42° Northeast 244 281 11,300 -934 Descending New York Center
Thu 11:45:17 AM 40.6558 -75.3611 39° Northeast 238 274 10,300 -1,140 Descending New York Center
Thu 11:46:17 AM 40.7058 -75.3017 42° Northeast 225 259 9,000 -1,150 Descending New York Center
Thu 11:47:17 AM 40.7475 -75.2522 42° Northeast 219 252 8,000 -1,169 Descending New York Center
Thu 11:48:15 AM 40.8042 -75.2394 10° North 198 228 6,700 -1,627 Descending New York Center
Thu 11:49:15 AM 40.8628 -75.2325 North 193 222 4,800 -1,550 Descending New York Center
Thu 11:50:15 AM 40.8961 -75.1769 52° Northeast 180 207 3,600 -793 Descending New York Center
Thu 11:51:16 AM 40.9211 -75.1208 59° Northeast 173 199 3,200 -541 Descending New York Center
Thu 11:52:17 AM 40.9417 -75.0672 63° Northeast 178 205 2,500 -756 Descending New York Center
Thu 11:53:15 AM 40.9669 -75.0031 62° Northeast 173 199 1,700 -504 Descending New York Center
Thu 11:54:16 AM 40.9772 -74.9542 74° East 167 192 1,500 2,628 Descending New York Center
Thu 11:55:16 AM 40.9936 -74.9003 68° East 167 192 7,000 5,500 Climbing New York Center

Login

Don't have an account? Register now (free) for customized features, flight alerts, and more!